createdAt,value
2023-02-23T00:00:50.563Z,95499.00
2023-02-23T00:01:50.567Z,95501.00
2023-02-23T00:02:49.620Z,95501.00
2023-02-23T00:03:50.592Z,95503.00
2023-02-23T00:04:50.590Z,95499.00
2023-02-23T00:05:49.592Z,95499.00
2023-02-23T00:06:50.727Z,95505.00
2023-02-23T00:07:49.617Z,95505.00
2023-02-23T00:08:49.630Z,95501.00
2023-02-23T00:09:49.634Z,95503.00
2023-02-23T00:10:49.640Z,95501.00
2023-02-23T00:11:50.645Z,95501.00
2023-02-23T00:12:50.665Z,95499.00
2023-02-23T00:13:50.706Z,95499.00
2023-02-23T00:14:49.685Z,95499.00
2023-02-23T00:15:50.699Z,95501.00
2023-02-23T00:16:49.742Z,95501.00
2023-02-23T00:17:50.728Z,95499.00
2023-02-23T00:18:50.816Z,95501.00
2023-02-23T00:19:50.751Z,95501.00
2023-02-23T00:20:50.770Z,95501.00
2023-02-23T00:21:50.791Z,95501.00
2023-02-23T00:22:49.797Z,95499.00
2023-02-23T00:23:50.824Z,95501.00
2023-02-23T00:24:49.828Z,95499.00
2023-02-23T00:25:50.855Z,95499.00
2023-02-23T00:26:49.863Z,95501.00
2023-02-23T00:27:50.870Z,95501.00
2023-02-23T00:28:49.897Z,95503.00
2023-02-23T00:29:50.942Z,95499.00
2023-02-23T00:30:50.929Z,95503.00
2023-02-23T00:31:50.049Z,95503.00
2023-02-23T00:32:49.983Z,95505.00
2023-02-23T00:33:50.981Z,95507.00
2023-02-23T00:34:51.010Z,95507.00
2023-02-23T00:35:50.005Z,95511.00
2023-02-23T00:36:51.016Z,95509.00
2023-02-23T00:37:51.035Z,95511.00
2023-02-23T00:38:51.073Z,95511.00
2023-02-23T00:39:51.067Z,95515.00
2023-02-23T00:40:51.089Z,95519.00
2023-02-23T00:41:51.095Z,95517.00
2023-02-23T00:42:51.128Z,95517.00
2023-02-23T00:43:51.144Z,95519.00
2023-02-23T00:44:50.166Z,95517.00
2023-02-23T00:45:51.263Z,95519.00
2023-02-23T00:46:51.222Z,95519.00
2023-02-23T00:47:51.205Z,95519.00
2023-02-23T00:48:51.221Z,95517.00
2023-02-23T00:49:51.220Z,95519.00
2023-02-23T00:50:51.228Z,95517.00
2023-02-23T00:51:51.240Z,95517.00
2023-02-23T00:52:50.254Z,95517.00
2023-02-23T00:53:51.264Z,95515.00
2023-02-23T00:54:51.258Z,95517.00
2023-02-23T00:55:51.253Z,95517.00
2023-02-23T00:56:51.267Z,95515.00
2023-02-23T00:57:51.267Z,95513.00
2023-02-23T00:58:51.288Z,95515.00
2023-02-23T00:59:51.288Z,95511.00
2023-02-23T01:00:51.308Z,95513.00
2023-02-23T01:01:51.328Z,95515.00
2023-02-23T01:02:51.315Z,95513.00
2023-02-23T01:03:51.310Z,95515.00
2023-02-23T01:04:51.304Z,95517.00
2023-02-23T01:05:50.325Z,95517.00
2023-02-23T01:06:51.326Z,95517.00
2023-02-23T01:07:50.335Z,95521.00
2023-02-23T01:08:51.328Z,95523.00
2023-02-23T01:09:50.340Z,95523.00
2023-02-23T01:10:51.342Z,95525.00
2023-02-23T01:11:50.359Z,95527.00
2023-02-23T01:12:50.365Z,95527.00
2023-02-23T01:13:51.379Z,95527.00
2023-02-23T01:14:50.393Z,95531.00
2023-02-23T01:15:50.434Z,95533.00
2023-02-23T01:16:51.416Z,95533.00
2023-02-23T01:17:50.427Z,95529.00
2023-02-23T01:18:50.424Z,95529.00
2023-02-23T01:19:50.416Z,95529.00
2023-02-23T01:20:51.428Z,95527.00
2023-02-23T01:21:51.423Z,95527.00
2023-02-23T01:22:51.446Z,95525.00
2023-02-23T01:23:50.458Z,95523.00
2023-02-23T01:24:51.467Z,95525.00
2023-02-23T01:25:50.449Z,95525.00
2023-02-23T01:26:51.469Z,95523.00
2023-02-23T01:27:51.460Z,95525.00
2023-02-23T01:28:51.477Z,95523.00
2023-02-23T01:29:51.476Z,95523.00
2023-02-23T01:30:50.558Z,95521.00
2023-02-23T01:31:50.583Z,95521.00
2023-02-23T01:32:50.470Z,95519.00
2023-02-23T01:33:51.537Z,95519.00
2023-02-23T01:34:51.497Z,95521.00
2023-02-23T01:35:51.503Z,95521.00
2023-02-23T01:36:51.522Z,95523.00
2023-02-23T01:37:51.524Z,95525.00
2023-02-23T01:38:51.551Z,95525.00
2023-02-23T01:39:51.541Z,95525.00
2023-02-23T01:40:51.551Z,95525.00
2023-02-23T01:41:51.583Z,95525.00
2023-02-23T01:42:51.577Z,95525.00
2023-02-23T01:43:51.603Z,95525.00
2023-02-23T01:44:51.593Z,95521.00
2023-02-23T01:45:51.631Z,95523.00
2023-02-23T01:46:50.628Z,95519.00
2023-02-23T01:47:51.645Z,95519.00
2023-02-23T01:48:51.701Z,95521.00
2023-02-23T01:49:51.704Z,95519.00
2023-02-23T01:50:51.689Z,95517.00
2023-02-23T01:51:51.712Z,95517.00
2023-02-23T01:52:51.706Z,95515.00
2023-02-23T01:53:51.744Z,95517.00
2023-02-23T01:54:51.753Z,95515.00
2023-02-23T01:55:50.744Z,95517.00
2023-02-23T01:56:50.759Z,95511.00
2023-02-23T01:57:51.788Z,95509.00
2023-02-23T01:58:51.820Z,95509.00
2023-02-23T01:59:51.819Z,95507.00
2023-02-23T02:00:51.847Z,95503.00
2023-02-23T02:01:51.853Z,95501.00
2023-02-23T02:02:51.861Z,95499.00
2023-02-23T02:03:51.896Z,95499.00
2023-02-23T02:04:51.986Z,95497.00
2023-02-23T02:05:51.966Z,95497.00
2023-02-23T02:06:51.969Z,95497.00
2023-02-23T02:07:51.932Z,95497.00
2023-02-23T02:08:51.966Z,95497.00
2023-02-23T02:09:51.966Z,95497.00
2023-02-23T02:10:51.979Z,95497.00
2023-02-23T02:11:51.989Z,95497.00
2023-02-23T02:12:52.082Z,95499.00
2023-02-23T02:13:51.019Z,95501.00
2023-02-23T02:14:52.037Z,95501.00
2023-02-23T02:15:52.014Z,95503.00
2023-02-23T02:16:52.022Z,95501.00
2023-02-23T02:17:52.034Z,95501.00
2023-02-23T02:18:52.051Z,95501.00
2023-02-23T02:19:52.065Z,95499.00
2023-02-23T02:20:52.048Z,95497.00
2023-02-23T02:21:52.085Z,95497.00
2023-02-23T02:22:52.048Z,95497.00
2023-02-23T02:23:52.133Z,95497.00
2023-02-23T02:24:51.078Z,95497.00
2023-02-23T02:25:52.068Z,95494.00
2023-02-23T02:26:52.086Z,95494.00
2023-02-23T02:27:52.082Z,95494.00
2023-02-23T02:28:51.139Z,95494.00
2023-02-23T02:29:52.178Z,95497.00
2023-02-23T02:30:52.298Z,95495.00
2023-02-23T02:31:52.480Z,95497.00
2023-02-23T02:32:51.364Z,95497.00
2023-02-23T02:33:52.424Z,95499.00
2023-02-23T02:34:52.495Z,95499.00
2023-02-23T02:35:52.537Z,95497.00
2023-02-23T02:36:52.588Z,95497.00
2023-02-23T02:37:52.723Z,95499.00
2023-02-23T02:38:51.717Z,95499.00
2023-02-23T02:39:51.781Z,95503.00
2023-02-23T02:40:52.800Z,95501.00
2023-02-23T02:41:52.862Z,95501.00
2023-02-23T02:42:52.893Z,95497.00
2023-02-23T02:43:51.940Z,95497.00
2023-02-23T02:44:52.988Z,95497.00
2023-02-23T02:45:53.057Z,95497.00
2023-02-23T02:46:53.062Z,95495.00
2023-02-23T02:47:53.098Z,95495.00
2023-02-23T02:48:53.129Z,95499.00
2023-02-23T02:49:52.169Z,95492.00
2023-02-23T02:50:53.205Z,95499.00
2023-02-23T02:51:53.242Z,95499.00
2023-02-23T02:52:53.323Z,95499.00
2023-02-23T02:53:53.319Z,95497.00
2023-02-23T02:54:53.344Z,95497.00
2023-02-23T02:55:53.349Z,95495.00
2023-02-23T02:56:53.370Z,95494.00
2023-02-23T02:57:53.402Z,95495.00
2023-02-23T02:58:53.481Z,95494.00
2023-02-23T02:59:53.426Z,95494.00
2023-02-23T03:00:53.463Z,95497.00
2023-02-23T03:01:53.501Z,95499.00
2023-02-23T03:02:53.488Z,95499.00
2023-02-23T03:03:53.529Z,95497.00
2023-02-23T03:04:53.585Z,95497.00
2023-02-23T03:05:53.554Z,95497.00
2023-02-23T03:06:52.549Z,95497.00
2023-02-23T03:07:53.586Z,95499.00
2023-02-23T03:08:53.594Z,95497.00
2023-02-23T03:09:52.647Z,95499.00
2023-02-23T03:10:53.621Z,95497.00
2023-02-23T03:11:54.085Z,95499.00
2023-02-23T03:12:53.661Z,95501.00
2023-02-23T03:13:53.704Z,95501.00
2023-02-23T03:14:52.678Z,95499.00
2023-02-23T03:15:52.721Z,95499.00
2023-02-23T03:16:53.715Z,95501.00
2023-02-23T03:17:52.725Z,95503.00
2023-02-23T03:18:53.761Z,95503.00
2023-02-23T03:19:53.774Z,95505.00
2023-02-23T03:20:52.804Z,95507.00
2023-02-23T03:21:53.821Z,95509.00
2023-02-23T03:22:53.831Z,95509.00
2023-02-23T03:23:53.849Z,95511.00
2023-02-23T03:24:53.879Z,95511.00
2023-02-23T03:25:53.981Z,95511.00
2023-02-23T03:26:53.900Z,95513.00
2023-02-23T03:27:53.941Z,95511.00
2023-02-23T03:28:53.949Z,95511.00
2023-02-23T03:29:52.962Z,95509.00
2023-02-23T03:30:54.014Z,95509.00
2023-02-23T03:31:53.094Z,95509.00
2023-02-23T03:32:54.035Z,95509.00
2023-02-23T03:33:53.043Z,95511.00
2023-02-23T03:34:53.094Z,95509.00
2023-02-23T03:35:54.099Z,95511.00
2023-02-23T03:36:53.130Z,95511.00
2023-02-23T03:37:54.152Z,95513.00
2023-02-23T03:38:54.178Z,95513.00
2023-02-23T03:39:54.214Z,95511.00
2023-02-23T03:40:54.239Z,95513.00
2023-02-23T03:41:54.281Z,95513.00
2023-02-23T03:42:53.273Z,95513.00
2023-02-23T03:43:54.305Z,95515.00
2023-02-23T03:44:53.316Z,95515.00
2023-02-23T03:45:53.377Z,95515.00
2023-02-23T03:46:54.367Z,95517.00
2023-02-23T03:47:54.408Z,95517.00
2023-02-23T03:48:54.425Z,95515.00
2023-02-23T03:49:54.443Z,95519.00
2023-02-23T03:50:54.501Z,95519.00
2023-02-23T03:51:54.504Z,95519.00
2023-02-23T03:52:54.481Z,95521.00
2023-02-23T03:53:54.516Z,95519.00
2023-02-23T03:54:54.513Z,95519.00
2023-02-23T03:55:53.538Z,95517.00
2023-02-23T03:56:54.542Z,95519.00
2023-02-23T03:57:54.607Z,95517.00
2023-02-23T03:58:54.572Z,95519.00
2023-02-23T03:59:54.585Z,95521.00
2023-02-23T04:00:54.584Z,95521.00
2023-02-23T04:01:54.645Z,95521.00
2023-02-23T04:02:54.604Z,95521.00
2023-02-23T04:03:54.654Z,95525.00
2023-02-23T04:04:53.620Z,95525.00
2023-02-23T04:05:53.639Z,95523.00
2023-02-23T04:06:54.632Z,95527.00
2023-02-23T04:07:53.656Z,95525.00
2023-02-23T04:08:53.660Z,95525.00
2023-02-23T04:09:54.676Z,95525.00
2023-02-23T04:10:54.687Z,95525.00
2023-02-23T04:11:54.710Z,95525.00
2023-02-23T04:12:53.704Z,95525.00
2023-02-23T04:13:53.759Z,95527.00
2023-02-23T04:14:54.987Z,95527.00
2023-02-23T04:15:54.742Z,95523.00
2023-02-23T04:16:54.761Z,95523.00
2023-02-23T04:17:54.772Z,95527.00
2023-02-23T04:18:54.773Z,95523.00
2023-02-23T04:19:54.777Z,95521.00
2023-02-23T04:20:54.859Z,95521.00
2023-02-23T04:21:54.791Z,95521.00
2023-02-23T04:22:54.840Z,95521.00
2023-02-23T04:23:54.822Z,95525.00
2023-02-23T04:24:54.838Z,95523.00
2023-02-23T04:25:54.848Z,95525.00
2023-02-23T04:26:54.855Z,95523.00
2023-02-23T04:27:54.858Z,95525.00
2023-02-23T04:28:54.871Z,95527.00
2023-02-23T04:29:55.073Z,95523.00
2023-02-23T04:30:53.990Z,95523.00
2023-02-23T04:31:54.027Z,95525.00
2023-02-23T04:32:54.892Z,95525.00
2023-02-23T04:33:53.896Z,95527.00
2023-02-23T04:34:54.883Z,95531.00
2023-02-23T04:35:54.907Z,95529.00
2023-02-23T04:36:54.903Z,95529.00
2023-02-23T04:37:53.912Z,95529.00
2023-02-23T04:38:54.898Z,95531.00
2023-02-23T04:39:53.906Z,95537.00
2023-02-23T04:40:54.947Z,95537.00
2023-02-23T04:41:53.931Z,95533.00
2023-02-23T04:42:54.934Z,95533.00
2023-02-23T04:43:54.940Z,95535.00
2023-02-23T04:44:54.948Z,95537.00
2023-02-23T04:45:55.584Z,95537.00
2023-02-23T04:46:54.952Z,95537.00
2023-02-23T04:47:54.947Z,95535.00
2023-02-23T04:48:54.966Z,95537.00
2023-02-23T04:49:54.968Z,95535.00
2023-02-23T04:50:53.975Z,95535.00
2023-02-23T04:51:54.976Z,95533.00
2023-02-23T04:52:54.988Z,95533.00
2023-02-23T04:53:54.991Z,95533.00
2023-02-23T04:54:54.993Z,95535.00
2023-02-23T04:55:55.012Z,95535.00
2023-02-23T04:56:55.008Z,95533.00
2023-02-23T04:57:55.020Z,95535.00
2023-02-23T04:58:55.035Z,95537.00
2023-02-23T04:59:55.031Z,95539.00
2023-02-23T05:00:55.047Z,95539.00
2023-02-23T05:01:55.091Z,95537.00
2023-02-23T05:02:55.059Z,95539.00
2023-02-23T05:03:55.077Z,95537.00
2023-02-23T05:04:55.149Z,95537.00
2023-02-23T05:05:55.087Z,95539.00
2023-02-23T05:06:55.109Z,95537.00
2023-02-23T05:07:55.246Z,95535.00
2023-02-23T05:08:55.130Z,95533.00
2023-02-23T05:09:54.134Z,95533.00
2023-02-23T05:10:54.145Z,95533.00
2023-02-23T05:11:55.152Z,95535.00
2023-02-23T05:12:55.153Z,95533.00
2023-02-23T05:13:55.208Z,95531.00
2023-02-23T05:14:55.187Z,95533.00
2023-02-23T05:15:55.230Z,95533.00
2023-02-23T05:16:55.209Z,95537.00
2023-02-23T05:17:55.222Z,95533.00
2023-02-23T05:18:55.204Z,95531.00
2023-02-23T05:19:55.215Z,95529.00
2023-02-23T05:20:55.248Z,95531.00
2023-02-23T05:21:55.243Z,95531.00
2023-02-23T05:22:55.238Z,95535.00
2023-02-23T05:23:55.253Z,95531.00
2023-02-23T05:24:57.351Z,95531.00
2023-02-23T05:25:54.302Z,95533.00
2023-02-23T05:26:55.257Z,95531.00
2023-02-23T05:27:55.247Z,95527.00
2023-02-23T05:28:55.244Z,95527.00
2023-02-23T05:29:55.232Z,95527.00
2023-02-23T05:30:55.370Z,95529.00
2023-02-23T05:31:55.358Z,95531.00
2023-02-23T05:32:54.203Z,95533.00
2023-02-23T05:33:55.252Z,95535.00
2023-02-23T05:34:54.195Z,95533.00
2023-02-23T05:35:55.224Z,95533.00
2023-02-23T05:36:55.258Z,95533.00
2023-02-23T05:37:54.164Z,95535.00
2023-02-23T05:38:55.188Z,95533.00
2023-02-23T05:39:55.151Z,95537.00
2023-02-23T05:40:55.146Z,95537.00
2023-02-23T05:41:55.145Z,95537.00
2023-02-23T05:42:54.131Z,95539.00
2023-02-23T05:43:55.122Z,95537.00
2023-02-23T05:44:54.113Z,95537.00
2023-02-23T05:45:55.162Z,95537.00
2023-02-23T05:46:54.100Z,95537.00
2023-02-23T05:47:55.089Z,95539.00
2023-02-23T05:48:55.124Z,95539.00
2023-02-23T05:49:54.110Z,95539.00
2023-02-23T05:50:54.072Z,95541.00
2023-02-23T05:51:54.078Z,95537.00
2023-02-23T05:52:55.070Z,95539.00
2023-02-23T05:53:55.067Z,95541.00
2023-02-23T05:54:54.048Z,95543.00
2023-02-23T05:55:54.030Z,95543.00
2023-02-23T05:56:55.037Z,95545.00
2023-02-23T05:57:55.067Z,95543.00
2023-02-23T05:58:55.018Z,95543.00
2023-02-23T05:59:54.002Z,95545.00
2023-02-23T06:00:55.000Z,95545.00
2023-02-23T06:01:54.987Z,95547.00
2023-02-23T06:02:55.059Z,95547.00
2023-02-23T06:03:55.024Z,95549.00
2023-02-23T06:04:54.977Z,95547.00
2023-02-23T06:05:54.996Z,95549.00
2023-02-23T06:06:54.964Z,95552.00
2023-02-23T06:07:54.955Z,95552.00
2023-02-23T06:08:54.950Z,95552.00
2023-02-23T06:09:53.943Z,95549.00
2023-02-23T06:10:53.934Z,95549.00
2023-02-23T06:11:54.928Z,95549.00
2023-02-23T06:12:54.933Z,95550.00
2023-02-23T06:13:54.898Z,95554.00
2023-02-23T06:14:54.897Z,95552.00
2023-02-23T06:15:53.921Z,95552.00
2023-02-23T06:16:55.000Z,95552.00
2023-02-23T06:17:54.873Z,95552.00
2023-02-23T06:18:53.879Z,95554.00
2023-02-23T06:19:54.860Z,95552.00
2023-02-23T06:20:54.851Z,95554.00
2023-02-23T06:21:55.005Z,95554.00
2023-02-23T06:22:54.852Z,95556.00
2023-02-23T06:23:54.854Z,95558.00
2023-02-23T06:24:54.836Z,95558.00
2023-02-23T06:25:54.881Z,95562.00
2023-02-23T06:26:54.886Z,95562.00
2023-02-23T06:27:54.913Z,95562.00
2023-02-23T06:28:53.897Z,95564.00
2023-02-23T06:29:54.958Z,95564.00
2023-02-23T06:30:55.083Z,95568.00
2023-02-23T06:31:55.062Z,95570.00
2023-02-23T06:32:54.965Z,95570.00
2023-02-23T06:33:54.998Z,95570.00
2023-02-23T06:34:54.997Z,95570.00
2023-02-23T06:35:55.013Z,95570.00
2023-02-23T06:36:55.024Z,95570.00
2023-02-23T06:37:55.057Z,95572.00
2023-02-23T06:38:55.056Z,95572.00
2023-02-23T06:39:55.044Z,95572.00
2023-02-23T06:40:55.064Z,95566.00
2023-02-23T06:41:55.100Z,95572.00
2023-02-23T06:42:55.098Z,95572.00
2023-02-23T06:43:55.062Z,95576.00
2023-02-23T06:45:55.082Z,95576.00
2023-02-23T06:46:55.109Z,95580.00
2023-02-23T06:47:55.125Z,95584.00
2023-02-23T06:48:55.137Z,95582.00
2023-02-23T06:49:55.132Z,95578.00
2023-02-23T06:50:55.151Z,95578.00
2023-02-23T06:53:55.255Z,95580.00
2023-02-23T06:54:55.266Z,95578.00
2023-02-23T06:55:55.269Z,95576.00
2023-02-23T06:57:55.324Z,95584.00
2023-02-23T06:58:55.288Z,95584.00
2023-02-23T06:59:55.339Z,95582.00
2023-02-23T07:00:55.552Z,95588.00
2023-02-23T07:01:56.009Z,95586.00
2023-02-23T07:02:55.472Z,95588.00
2023-02-23T07:03:55.576Z,95588.00
2023-02-23T07:04:54.537Z,95590.00
2023-02-23T07:05:55.549Z,95594.00
2023-02-23T07:06:55.581Z,95594.00
2023-02-23T07:07:54.546Z,95594.00
2023-02-23T07:08:55.603Z,95594.00
2023-02-23T07:09:55.649Z,95592.00
2023-02-23T07:10:54.656Z,95594.00
2023-02-23T07:11:55.713Z,95597.00
2023-02-23T07:12:55.782Z,95597.00
2023-02-23T07:13:55.830Z,95599.00
2023-02-23T07:14:55.905Z,95597.00
2023-02-23T07:15:56.000Z,95596.00
2023-02-23T07:16:55.975Z,95596.00
2023-02-23T07:17:56.012Z,95597.00
2023-02-23T07:18:56.043Z,95597.00
2023-02-23T07:19:56.075Z,95597.00
2023-02-23T07:20:56.137Z,95597.00
2023-02-23T07:21:56.166Z,95601.00
2023-02-23T07:22:56.164Z,95601.00
2023-02-23T07:23:56.185Z,95601.00
2023-02-23T07:24:55.202Z,95605.00
2023-02-23T07:25:56.331Z,95601.00
2023-02-23T07:26:56.366Z,95601.00
2023-02-23T07:27:56.268Z,95603.00
2023-02-23T07:28:56.291Z,95605.00
2023-02-23T07:29:56.311Z,95605.00
2023-02-23T07:30:56.359Z,95603.00
2023-02-23T07:31:55.432Z,95605.00
2023-02-23T07:32:56.313Z,95601.00
2023-02-23T07:33:56.298Z,95599.00
2023-02-23T07:34:56.297Z,95599.00
2023-02-23T07:35:56.295Z,95597.00
2023-02-23T07:36:56.313Z,95597.00
2023-02-23T07:37:56.311Z,95599.00
2023-02-23T07:38:55.298Z,95599.00
2023-02-23T07:39:56.298Z,95597.00
2023-02-23T07:40:56.322Z,95597.00
2023-02-23T07:41:55.341Z,95597.00
2023-02-23T07:42:56.340Z,95594.00
2023-02-23T07:43:55.413Z,95594.00
2023-02-23T07:44:56.401Z,95597.00
2023-02-23T07:45:56.419Z,95597.00
2023-02-23T07:46:56.427Z,95597.00
2023-02-23T07:47:55.473Z,95599.00
2023-02-23T07:48:56.578Z,95601.00
2023-02-23T07:49:56.614Z,95603.00
2023-02-23T07:50:56.657Z,95603.00
2023-02-23T07:51:56.733Z,95601.00
2023-02-23T07:52:56.957Z,95603.00
2023-02-23T07:53:56.756Z,95603.00
2023-02-23T07:54:55.802Z,95601.00
2023-02-23T07:55:56.834Z,95601.00
2023-02-23T07:56:55.892Z,95601.00
2023-02-23T07:57:56.979Z,95601.00
2023-02-23T07:58:55.947Z,95603.00
2023-02-23T07:59:56.936Z,95603.00
2023-02-23T08:00:57.024Z,95603.00
2023-02-23T08:01:56.010Z,95605.00
2023-02-23T08:02:57.061Z,95603.00
2023-02-23T08:03:57.120Z,95603.00
2023-02-23T08:04:57.178Z,95603.00
2023-02-23T08:05:57.195Z,95603.00
2023-02-23T08:06:56.257Z,95603.00
2023-02-23T08:07:57.306Z,95607.00
2023-02-23T08:08:57.352Z,95609.00
2023-02-23T08:09:57.416Z,95609.00
2023-02-23T08:10:57.460Z,95609.00
2023-02-23T08:11:56.526Z,95611.00
2023-02-23T08:12:57.578Z,95613.00
2023-02-23T08:13:57.579Z,95611.00
2023-02-23T08:14:57.651Z,95615.00
2023-02-23T08:15:57.674Z,95615.00
2023-02-23T08:16:56.830Z,95615.00
2023-02-23T08:17:57.845Z,95613.00
2023-02-23T08:18:57.875Z,95613.00
2023-02-23T08:19:57.921Z,95613.00
2023-02-23T08:20:56.970Z,95617.00
2023-02-23T08:21:58.026Z,95617.00
2023-02-23T08:22:58.085Z,95613.00
2023-02-23T08:23:58.150Z,95615.00
2023-02-23T08:24:58.203Z,95615.00
2023-02-23T08:25:58.244Z,95615.00
2023-02-23T08:26:58.317Z,95615.00
2023-02-23T08:27:58.366Z,95611.00
2023-02-23T08:28:57.408Z,95613.00
2023-02-23T08:29:58.598Z,95613.00
2023-02-23T08:30:58.649Z,95613.00
2023-02-23T08:31:58.754Z,95613.00
2023-02-23T08:32:58.647Z,95611.00
2023-02-23T08:33:57.682Z,95613.00
2023-02-23T08:34:58.742Z,95613.00
2023-02-23T08:35:58.814Z,95611.00
2023-02-23T08:36:57.871Z,95613.00
2023-02-23T08:37:58.901Z,95613.00
2023-02-23T08:38:58.965Z,95613.00
2023-02-23T08:39:58.983Z,95613.00
2023-02-23T08:40:59.045Z,95617.00
2023-02-23T08:41:59.081Z,95615.00
2023-02-23T08:42:59.126Z,95615.00
2023-02-23T08:43:58.251Z,95617.00
2023-02-23T08:44:59.188Z,95617.00
2023-02-23T08:45:59.281Z,95617.00
2023-02-23T08:46:58.292Z,95617.00
2023-02-23T08:47:59.521Z,95617.00
2023-02-23T08:48:59.346Z,95615.00
2023-02-23T08:49:59.425Z,95617.00
2023-02-23T08:50:59.465Z,95617.00
2023-02-23T08:51:58.507Z,95619.00
2023-02-23T08:52:58.980Z,95613.00
2023-02-23T08:53:59.624Z,95621.00
2023-02-23T08:54:59.670Z,95619.00
2023-02-23T08:55:59.733Z,95619.00
2023-02-23T08:56:59.785Z,95617.00
2023-02-23T08:57:59.914Z,95617.00
2023-02-23T08:58:59.898Z,95617.00
2023-02-23T08:59:59.936Z,95613.00
2023-02-23T09:01:00.009Z,95615.00
2023-02-23T09:02:00.129Z,95617.00
2023-02-23T09:03:00.127Z,95615.00
2023-02-23T09:03:59.172Z,95617.00
2023-02-23T09:04:59.237Z,95615.00
2023-02-23T09:06:00.273Z,95615.00
2023-02-23T09:07:00.346Z,95617.00
2023-02-23T09:08:00.401Z,95617.00
2023-02-23T09:08:59.443Z,95615.00
2023-02-23T09:10:00.499Z,95615.00
2023-02-23T09:11:00.534Z,95615.00
2023-02-23T09:12:00.586Z,95617.00
2023-02-23T09:13:00.649Z,95617.00
2023-02-23T09:13:59.660Z,95613.00
2023-02-23T09:15:00.724Z,95617.00
2023-02-23T09:16:00.860Z,95617.00
2023-02-23T09:17:00.765Z,95617.00
2023-02-23T09:17:59.910Z,95619.00
2023-02-23T09:19:00.860Z,95617.00
2023-02-23T09:20:00.893Z,95617.00
2023-02-23T09:20:59.933Z,95621.00
2023-02-23T09:21:59.977Z,95617.00
2023-02-23T09:23:01.017Z,95617.00
2023-02-23T09:24:01.046Z,95617.00
2023-02-23T09:25:00.113Z,95617.00
2023-02-23T09:26:01.120Z,95623.00
2023-02-23T09:27:01.159Z,95621.00
2023-02-23T09:28:01.220Z,95621.00
2023-02-23T09:29:01.230Z,95619.00
2023-02-23T09:30:01.271Z,95619.00
2023-02-23T09:31:01.477Z,95617.00
2023-02-23T09:32:01.538Z,95615.00
2023-02-23T09:33:01.390Z,95617.00
2023-02-23T09:34:01.531Z,95619.00
2023-02-23T09:35:01.459Z,95615.00
2023-02-23T09:36:01.490Z,95617.00
2023-02-23T09:37:01.564Z,95617.00
2023-02-23T09:38:01.617Z,95617.00
2023-02-23T09:39:01.687Z,95613.00
2023-02-23T09:40:01.703Z,95615.00
2023-02-23T09:41:01.731Z,95617.00
2023-02-23T09:42:01.805Z,95615.00
2023-02-23T09:43:02.004Z,95615.00
2023-02-23T09:44:01.884Z,95613.00
2023-02-23T09:45:01.908Z,95611.00
2023-02-23T09:46:01.955Z,95607.00
2023-02-23T09:47:01.949Z,95609.00
2023-02-23T09:48:01.061Z,95607.00
2023-02-23T09:49:01.042Z,95605.00
2023-02-23T09:50:01.092Z,95603.00
2023-02-23T09:51:02.094Z,95603.00
2023-02-23T09:52:02.109Z,95601.00
2023-02-23T09:53:02.037Z,95597.00
2023-02-23T09:54:02.186Z,95601.00
2023-02-23T09:55:02.219Z,95599.00
2023-02-23T09:56:02.229Z,95599.00
2023-02-23T09:57:01.223Z,95597.00
2023-02-23T09:58:02.542Z,95599.00
2023-02-23T09:59:02.293Z,95599.00
2023-02-23T10:00:02.314Z,95599.00
2023-02-23T10:01:02.362Z,95603.00
2023-02-23T10:02:02.388Z,95603.00
2023-02-23T10:03:02.403Z,95603.00
2023-02-23T10:04:02.414Z,95601.00
2023-02-23T10:05:02.490Z,95601.00
2023-02-23T10:06:02.522Z,95601.00
2023-02-23T10:07:02.607Z,95601.00
2023-02-23T10:08:02.586Z,95605.00
2023-02-23T10:09:02.624Z,95603.00
2023-02-23T10:10:02.620Z,95603.00
2023-02-23T10:11:02.606Z,95599.00
2023-02-23T10:12:02.594Z,95601.00
2023-02-23T10:13:02.604Z,95599.00
2023-02-23T10:14:02.655Z,95597.00
2023-02-23T10:15:02.697Z,95601.00
2023-02-23T10:16:02.830Z,95599.00
2023-02-23T10:17:02.830Z,95599.00
2023-02-23T10:18:03.343Z,95601.00
2023-02-23T10:19:02.927Z,95603.00
2023-02-23T10:20:02.987Z,95599.00
2023-02-23T10:21:03.016Z,95601.00
2023-02-23T10:22:03.086Z,95605.00
2023-02-23T10:23:02.107Z,95599.00
2023-02-23T10:24:03.134Z,95597.00
2023-02-23T10:25:03.152Z,95596.00
2023-02-23T10:26:03.222Z,95594.00
2023-02-23T10:27:03.248Z,95594.00
2023-02-23T10:28:03.286Z,95594.00
2023-02-23T10:29:03.326Z,95592.00
2023-02-23T10:30:03.389Z,95592.00
2023-02-23T10:31:03.515Z,95594.00
2023-02-23T10:32:02.522Z,95596.00
2023-02-23T10:33:03.425Z,95596.00
2023-02-23T10:34:03.407Z,95596.00
2023-02-23T10:35:02.410Z,95597.00
2023-02-23T10:36:13.015Z,95594.00
2023-02-23T10:37:03.463Z,95596.00
2023-02-23T10:38:03.477Z,95590.00
2023-02-23T10:39:02.448Z,95592.00
2023-02-23T10:40:03.702Z,95594.00
2023-02-23T10:41:03.462Z,95590.00
2023-02-23T10:42:02.461Z,95592.00
2023-02-23T10:43:03.413Z,95594.00
2023-02-23T10:44:15.639Z,95592.00
2023-02-23T10:45:03.395Z,95590.00
2023-02-23T10:46:03.529Z,95590.00
2023-02-23T10:47:03.397Z,95590.00
2023-02-23T10:48:03.420Z,95584.00
2023-02-23T10:49:02.528Z,95580.00
2023-02-23T10:50:02.388Z,95578.00
2023-02-23T10:51:03.343Z,95582.00
2023-02-23T10:52:03.343Z,95580.00
2023-02-23T10:53:03.336Z,95578.00
2023-02-23T10:54:07.990Z,95576.00
2023-02-23T10:55:03.353Z,95576.00
2023-02-23T10:56:03.345Z,95574.00
2023-02-23T10:57:02.321Z,95574.00
2023-02-23T10:58:03.410Z,95572.00
2023-02-23T10:59:03.313Z,95570.00
2023-02-23T11:00:03.309Z,95572.00
2023-02-23T11:02:03.008Z,95574.00
2023-02-23T11:03:03.363Z,95574.00
2023-02-23T11:04:06.210Z,95572.00
2023-02-23T11:05:03.421Z,95570.00
2023-02-23T11:06:02.316Z,95574.00
2023-02-23T11:07:03.228Z,95572.00
2023-02-23T11:08:02.229Z,95572.00
2023-02-23T11:09:03.381Z,95570.00
2023-02-23T11:10:03.246Z,95570.00
2023-02-23T11:11:02.199Z,95570.00
2023-02-23T11:12:03.211Z,95568.00
2023-02-23T11:13:03.219Z,95566.00
2023-02-23T11:14:03.203Z,95566.00
2023-02-23T11:15:02.181Z,95564.00
2023-02-23T11:16:02.183Z,95562.00
2023-02-23T11:17:03.229Z,95564.00
2023-02-23T11:18:03.207Z,95560.00
2023-02-23T11:19:02.256Z,95560.00
2023-02-23T11:20:02.151Z,95558.00
2023-02-23T11:21:03.131Z,95558.00
2023-02-23T11:22:03.119Z,95556.00
2023-02-23T11:23:14.028Z,95556.00
2023-02-23T11:24:03.142Z,95552.00
2023-02-23T11:25:03.132Z,95558.00
2023-02-23T11:26:03.125Z,95558.00
2023-02-23T11:27:03.101Z,95554.00
2023-02-23T11:28:03.092Z,95554.00
2023-02-23T11:29:03.074Z,95552.00
2023-02-23T11:30:02.059Z,95552.00
2023-02-23T11:31:03.200Z,95550.00
2023-02-23T11:32:06.799Z,95545.00
2023-02-23T11:33:03.043Z,95547.00
2023-02-23T11:34:03.036Z,95541.00
2023-02-23T11:35:03.025Z,95543.00
2023-02-23T11:36:03.010Z,95543.00
2023-02-23T11:37:03.018Z,95537.00
2023-02-23T11:38:05.388Z,95535.00
2023-02-23T11:39:03.000Z,95533.00
2023-02-23T11:40:03.021Z,95535.00
2023-02-23T11:41:02.014Z,95535.00
2023-02-23T11:42:02.998Z,95531.00
2023-02-23T11:43:02.964Z,95535.00
2023-02-23T11:44:03.249Z,95531.00
2023-02-23T11:45:03.062Z,95529.00
2023-02-23T11:46:02.094Z,95531.00
2023-02-23T11:47:01.966Z,95529.00
2023-02-23T11:48:01.937Z,95529.00
2023-02-23T11:49:01.916Z,95527.00
2023-02-23T11:50:02.068Z,95531.00